createdAt,value
2018-05-13T00:00:14.583Z,41.47
2018-05-13T00:02:43.731Z,48.80
2018-05-13T00:05:12.120Z,48.20
2018-05-13T00:07:40.525Z,53.80
2018-05-13T00:10:08.895Z,52.17
2018-05-13T00:12:37.427Z,53.13
2018-05-13T00:15:05.970Z,47.40
2018-05-13T00:17:34.341Z,48.43
2018-05-13T00:20:02.838Z,43.00
2018-05-13T00:22:31.217Z,43.63
2018-05-13T00:24:59.531Z,47.00
2018-05-13T00:27:28.239Z,47.77
2018-05-13T00:29:57.374Z,48.83
2018-05-13T00:32:25.728Z,44.70
2018-05-13T00:34:54.187Z,42.00
2018-05-13T00:37:22.585Z,45.63
2018-05-13T00:39:51.032Z,47.37
2018-05-13T00:42:19.404Z,46.87
2018-05-13T00:44:47.735Z,50.97
2018-05-13T00:47:16.069Z,48.97
2018-05-13T00:49:44.438Z,45.20
2018-05-13T00:52:12.801Z,42.20
2018-05-13T00:54:55.401Z,45.57
2018-05-13T00:57:23.764Z,40.87
2018-05-13T00:59:52.172Z,40.23
2018-05-13T01:02:21.311Z,41.03
2018-05-13T01:04:49.695Z,38.77
2018-05-13T01:07:18.116Z,45.40
2018-05-13T01:09:46.506Z,44.73
2018-05-13T01:12:14.917Z,48.80
2018-05-13T01:14:43.278Z,42.03
2018-05-13T01:17:12.444Z,39.50
2018-05-13T01:19:40.854Z,40.90
2018-05-13T01:22:10.012Z,42.90
2018-05-13T01:24:39.259Z,39.10
2018-05-13T01:27:07.653Z,39.93
2018-05-13T01:29:36.353Z,37.03
2018-05-13T01:32:05.499Z,42.40
2018-05-13T01:34:33.807Z,37.97
2018-05-13T01:37:02.134Z,41.10
2018-05-13T01:39:30.513Z,44.27
2018-05-13T01:41:59.775Z,35.50
2018-05-13T01:44:28.146Z,38.20
2018-05-13T01:46:57.283Z,39.77
2018-05-13T01:49:25.659Z,39.87
2018-05-13T01:51:54.834Z,35.43
2018-05-13T01:54:23.207Z,39.70
2018-05-13T01:56:51.617Z,38.27
2018-05-13T01:59:20.021Z,39.73
2018-05-13T02:01:49.314Z,41.57
2018-05-13T02:04:17.674Z,40.50
2018-05-13T02:06:46.019Z,42.63
2018-05-13T02:09:15.151Z,37.47
2018-05-13T02:11:43.643Z,37.17
2018-05-13T02:14:11.999Z,36.20
2018-05-13T02:16:40.391Z,38.80
2018-05-13T02:19:08.709Z,35.93
2018-05-13T02:21:37.807Z,38.70
2018-05-13T02:24:06.952Z,36.43
2018-05-13T02:26:35.398Z,34.70
2018-05-13T02:29:04.531Z,38.63
2018-05-13T02:31:32.914Z,39.17
2018-05-13T02:34:01.267Z,41.27
2018-05-13T02:36:30.385Z,34.20
2018-05-13T02:38:59.497Z,34.40
2018-05-13T02:41:27.806Z,43.13
2018-05-13T02:43:56.185Z,43.40
2018-05-13T02:46:24.514Z,40.87
2018-05-13T02:48:52.864Z,46.57
2018-05-13T02:51:21.235Z,45.17
2018-05-13T02:53:50.333Z,38.70
2018-05-13T02:56:19.505Z,39.73
2018-05-13T02:58:47.976Z,41.63
2018-05-13T03:01:16.394Z,42.93
2018-05-13T03:03:45.538Z,45.53
2018-05-13T03:06:13.934Z,40.87
2018-05-13T03:08:42.365Z,40.50
2018-05-13T03:11:11.549Z,39.20
2018-05-13T03:13:40.798Z,43.97
2018-05-13T03:16:09.180Z,48.87
2018-05-13T03:18:37.514Z,37.40
2018-05-13T03:21:05.893Z,46.07
2018-05-13T03:23:34.970Z,44.73
2018-05-13T03:26:04.110Z,46.03
2018-05-13T03:28:32.447Z,41.23
2018-05-13T03:31:00.854Z,44.43
2018-05-13T03:33:30.038Z,50.03
2018-05-13T03:35:58.457Z,47.80
2018-05-13T03:38:26.872Z,41.87
2018-05-13T03:40:55.259Z,47.70
2018-05-13T03:43:23.614Z,42.07
2018-05-13T03:45:52.002Z,45.00
2018-05-13T03:48:20.322Z,44.40
2018-05-13T03:50:49.505Z,45.10
2018-05-13T03:53:17.844Z,45.83
2018-05-13T03:55:46.314Z,39.43
2018-05-13T04:00:50.081Z,44.80
2018-05-13T04:03:18.458Z,43.60
2018-05-13T04:05:46.841Z,45.60
2018-05-13T04:08:44.991Z,43.10
2018-05-13T04:11:25.046Z,45.40
2018-05-13T04:14:05.159Z,41.87
2018-05-13T04:16:34.248Z,45.17
2018-05-13T04:19:02.641Z,45.23
2018-05-13T04:21:31.783Z,47.50
2018-05-13T04:24:00.114Z,44.90
2018-05-13T04:26:28.461Z,45.00
2018-05-13T04:28:56.778Z,45.30
2018-05-13T04:31:25.121Z,51.67
2018-05-13T04:33:53.547Z,45.87
2018-05-13T04:36:22.778Z,47.33
2018-05-13T04:38:51.124Z,45.50
2018-05-13T04:41:19.514Z,43.43
2018-05-13T04:43:47.880Z,41.63
2018-05-13T04:46:16.228Z,45.40
2018-05-13T04:48:45.390Z,37.43
2018-05-13T04:51:13.848Z,42.77
2018-05-13T04:53:42.209Z,40.87
2018-05-13T04:56:10.646Z,41.83
2018-05-13T04:58:39.053Z,40.00
2018-05-13T05:01:08.200Z,43.17
2018-05-13T05:03:36.636Z,39.67
2018-05-13T05:06:04.995Z,35.93
2018-05-13T05:08:33.324Z,36.40
2018-05-13T05:11:01.777Z,32.10
2018-05-13T05:13:30.281Z,29.13
2018-05-13T05:15:58.617Z,30.00
2018-05-13T05:18:27.019Z,25.83
2018-05-13T05:20:55.399Z,25.50
2018-05-13T05:23:24.514Z,24.13
2018-05-13T05:25:52.960Z,21.80
2018-05-13T05:28:22.059Z,23.63
2018-05-13T05:30:51.171Z,26.63
2018-05-13T05:33:19.569Z,25.53
2018-05-13T05:35:47.909Z,22.33
2018-05-13T05:38:16.349Z,26.13
2018-05-13T05:40:44.908Z,23.70
2018-05-13T05:43:15.005Z,21.03
2018-05-13T05:45:43.815Z,21.40
2018-05-13T05:48:12.993Z,21.67
2018-05-13T05:50:42.108Z,26.20
2018-05-13T05:53:10.461Z,24.00
2018-05-13T05:55:39.639Z,20.70
2018-05-13T05:58:08.009Z,23.83
2018-05-13T06:00:36.456Z,24.83
2018-05-13T06:03:05.057Z,21.07
2018-05-13T06:05:33.546Z,25.80
2018-05-13T06:08:02.185Z,24.30
2018-05-13T06:10:30.681Z,22.60
2018-05-13T06:12:59.130Z,20.23
2018-05-13T06:15:27.979Z,25.30
2018-05-13T06:17:56.419Z,16.87
2018-05-13T06:20:26.159Z,17.57
2018-05-13T06:22:54.501Z,20.13
2018-05-13T06:25:23.511Z,18.33
2018-05-13T06:27:52.053Z,18.87
2018-05-13T06:30:21.185Z,17.10
2018-05-13T06:32:50.439Z,16.30
2018-05-13T06:35:19.080Z,20.47
2018-05-13T06:37:47.534Z,18.83
2018-05-13T06:40:16.795Z,15.90
2018-05-13T06:42:46.501Z,19.00
2018-05-13T06:45:15.816Z,14.63
2018-05-13T06:47:44.831Z,15.50
2018-05-13T06:50:14.427Z,16.87
2018-05-13T06:52:43.437Z,15.10
2018-05-13T06:55:12.490Z,19.07
2018-05-13T06:57:43.829Z,16.37
2018-05-13T07:00:14.114Z,15.97
2018-05-13T07:02:45.906Z,20.50
2018-05-13T07:05:16.612Z,16.13
2018-05-13T07:07:46.110Z,15.53
2018-05-13T07:10:15.322Z,18.33
2018-05-13T07:12:45.492Z,14.70
2018-05-13T07:15:13.984Z,14.23
2018-05-13T07:17:42.376Z,19.23
2018-05-13T07:20:11.680Z,15.30
2018-05-13T07:22:40.133Z,18.40
2018-05-13T07:25:08.460Z,15.67
2018-05-13T07:27:40.828Z,18.33
2018-05-13T07:30:10.850Z,16.07
2018-05-13T07:32:40.349Z,18.53
2018-05-13T07:35:08.849Z,13.93
2018-05-13T07:37:37.282Z,17.27
2018-05-13T07:40:05.688Z,14.50
2018-05-13T07:42:34.198Z,14.27
2018-05-13T07:45:03.979Z,14.00
2018-05-13T07:47:32.410Z,12.70
2018-05-13T07:50:00.883Z,14.40
2018-05-13T07:52:29.472Z,14.93
2018-05-13T07:54:57.839Z,13.20
2018-05-13T07:57:26.354Z,12.50
2018-05-13T07:59:55.615Z,14.20
2018-05-13T08:02:24.823Z,18.40
2018-05-13T08:04:53.129Z,11.10
2018-05-13T08:07:21.499Z,12.50
2018-05-13T08:09:49.881Z,11.07
2018-05-13T08:12:18.289Z,12.07
2018-05-13T08:14:46.714Z,15.87
2018-05-13T08:17:15.075Z,12.70
2018-05-13T08:19:43.390Z,13.10
2018-05-13T08:22:11.728Z,17.87
2018-05-13T08:24:40.088Z,11.67
2018-05-13T08:27:08.439Z,11.20
2018-05-13T08:29:36.765Z,13.27
2018-05-13T08:32:05.871Z,17.63
2018-05-13T08:34:35.875Z,12.60
2018-05-13T08:37:04.670Z,17.20
2018-05-13T08:39:33.725Z,12.53
2018-05-13T08:42:02.758Z,9.20
2018-05-13T08:44:31.236Z,10.90
2018-05-13T08:46:59.573Z,15.57
2018-05-13T08:49:27.887Z,10.67
2018-05-13T08:51:56.205Z,13.37
2018-05-13T08:54:24.607Z,14.00
2018-05-13T08:56:52.946Z,13.40
2018-05-13T08:59:23.396Z,10.27
2018-05-13T09:01:51.808Z,14.23
2018-05-13T09:04:20.163Z,10.80
2018-05-13T09:06:48.528Z,9.80
2018-05-13T09:09:16.853Z,10.70
2018-05-13T09:11:46.258Z,10.77
2018-05-13T09:14:14.759Z,11.97
2018-05-13T09:16:43.867Z,10.47
2018-05-13T09:19:12.951Z,11.90
2018-05-13T09:21:42.107Z,10.13
2018-05-13T09:24:10.408Z,11.47
2018-05-13T09:26:38.793Z,9.33
2018-05-13T09:29:07.050Z,11.00
2018-05-13T09:31:35.546Z,7.27
2018-05-13T09:34:03.952Z,10.63
2018-05-13T09:36:32.278Z,7.73
2018-05-13T09:39:00.621Z,7.13
2018-05-13T09:41:29.704Z,13.90
2018-05-13T09:43:58.007Z,9.43
2018-05-13T09:46:26.325Z,7.13
2018-05-13T09:48:54.645Z,7.03
2018-05-13T09:51:23.067Z,6.13
2018-05-13T09:53:51.266Z,6.00
2018-05-13T09:56:19.645Z,8.10
2018-05-13T09:58:47.943Z,7.50
2018-05-13T10:01:16.317Z,7.60
2018-05-13T10:03:44.652Z,13.40
2018-05-13T10:06:12.962Z,7.13
2018-05-13T10:08:41.317Z,6.67
2018-05-13T10:11:09.627Z,8.43
2018-05-13T10:13:38.030Z,8.37
2018-05-13T10:16:07.149Z,7.97
2018-05-13T10:18:35.727Z,8.13
2018-05-13T10:21:04.852Z,8.53
2018-05-13T10:23:33.178Z,10.50
2018-05-13T10:26:02.265Z,12.70
2018-05-13T10:28:30.601Z,12.10
2018-05-13T10:30:58.953Z,8.70
2018-05-13T10:33:29.022Z,8.17
2018-05-13T10:35:57.339Z,7.93
2018-05-13T10:38:26.438Z,9.73
2018-05-13T10:40:55.530Z,9.20
2018-05-13T10:43:23.902Z,8.97
2018-05-13T10:45:52.259Z,12.63
2018-05-13T10:48:20.577Z,13.23
2018-05-13T10:50:49.760Z,7.53
2018-05-13T10:53:18.863Z,11.73
2018-05-13T10:55:47.931Z,10.67
2018-05-13T10:58:16.271Z,7.70
2018-05-13T11:00:44.601Z,9.00
2018-05-13T11:03:13.046Z,12.33
2018-05-13T11:05:41.363Z,8.80
2018-05-13T11:08:09.687Z,9.10
2018-05-13T11:10:37.999Z,13.03
2018-05-13T11:13:06.325Z,7.87
2018-05-13T11:15:34.700Z,8.53
2018-05-13T11:18:03.070Z,11.17
2018-05-13T11:20:31.449Z,9.03
2018-05-13T11:22:59.744Z,7.40
2018-05-13T11:25:28.046Z,9.57
2018-05-13T11:27:56.707Z,8.67
2018-05-13T11:30:25.032Z,9.50
2018-05-13T11:32:53.399Z,8.40
2018-05-13T11:35:21.868Z,16.10
2018-05-13T11:37:50.249Z,9.57
2018-05-13T11:40:18.608Z,10.73
2018-05-13T11:42:47.038Z,11.27
2018-05-13T11:45:15.401Z,10.43
2018-05-13T11:47:43.802Z,10.77
2018-05-13T11:50:12.192Z,8.57
2018-05-13T11:52:40.522Z,10.00
2018-05-13T11:55:09.793Z,9.07
2018-05-13T11:57:38.949Z,13.33
2018-05-13T12:00:07.285Z,11.97
2018-05-13T12:02:35.662Z,13.47
2018-05-13T12:05:04.044Z,11.50
2018-05-13T12:07:32.366Z,17.90
2018-05-13T12:10:00.755Z,14.80
2018-05-13T12:12:29.866Z,12.73
2018-05-13T12:14:58.989Z,14.27
2018-05-13T12:17:27.374Z,16.60
2018-05-13T12:19:55.794Z,18.47
2018-05-13T12:22:24.273Z,14.07
2018-05-13T12:24:52.725Z,15.57
2018-05-13T12:27:21.171Z,17.20
2018-05-13T12:29:49.502Z,19.17
2018-05-13T12:32:17.928Z,15.90
2018-05-13T12:34:48.137Z,14.57
2018-05-13T12:37:16.476Z,15.57
2018-05-13T12:39:44.786Z,14.30
2018-05-13T12:42:13.275Z,17.40
2018-05-13T12:44:41.608Z,14.70
2018-05-13T12:47:09.977Z,12.93
2018-05-13T12:49:38.302Z,15.00
2018-05-13T12:52:06.625Z,9.20
2018-05-13T12:54:35.013Z,9.33
2018-05-13T12:57:04.166Z,8.10
2018-05-13T12:59:32.493Z,9.97
2018-05-13T13:02:01.574Z,7.33
2018-05-13T13:04:30.720Z,7.20
2018-05-13T13:06:59.156Z,8.40
2018-05-13T13:09:27.573Z,8.07
2018-05-13T13:11:55.904Z,8.03
2018-05-13T13:14:25.026Z,10.33
2018-05-13T13:16:53.469Z,7.40
2018-05-13T13:19:21.838Z,9.93
2018-05-13T13:21:50.921Z,8.80
2018-05-13T13:24:20.241Z,9.30
2018-05-13T13:26:49.517Z,7.43
2018-05-13T13:29:17.835Z,9.57
2018-05-13T13:31:46.995Z,12.43
2018-05-13T13:34:15.392Z,11.23
2018-05-13T13:36:43.752Z,14.13
2018-05-13T13:39:12.088Z,11.57
2018-05-13T13:41:40.436Z,10.07
2018-05-13T13:44:09.513Z,9.40
2018-05-13T13:46:37.879Z,16.03
2018-05-13T13:49:06.255Z,15.43
2018-05-13T13:51:34.605Z,8.00
2018-05-13T13:54:03.661Z,19.60
2018-05-13T13:56:33.301Z,8.83
2018-05-13T13:59:02.426Z,10.67
2018-05-13T14:01:30.745Z,7.63
2018-05-13T14:03:59.065Z,9.13
2018-05-13T14:06:27.468Z,14.83
2018-05-13T14:08:56.655Z,24.10
2018-05-13T14:11:25.031Z,26.07
2018-05-13T14:13:53.390Z,27.73
2018-05-13T14:16:21.737Z,25.97
2018-05-13T14:18:50.947Z,30.30
2018-05-13T14:21:20.075Z,31.40
2018-05-13T14:23:48.493Z,31.80
2018-05-13T14:26:16.801Z,28.87
2018-05-13T14:28:45.203Z,34.67
2018-05-13T14:31:13.574Z,39.90
2018-05-13T14:33:41.886Z,38.70
2018-05-13T14:36:10.195Z,39.07
2018-05-13T14:38:38.529Z,42.20
2018-05-13T14:41:06.892Z,40.57
2018-05-13T14:43:36.009Z,38.63
2018-05-13T14:46:04.333Z,36.40
2018-05-13T14:48:32.657Z,50.60
2018-05-13T14:51:00.982Z,43.00
2018-05-13T14:53:29.400Z,46.53
2018-05-13T14:55:57.791Z,45.10
2018-05-13T14:58:26.219Z,49.40
2018-05-13T15:00:54.657Z,44.53
2018-05-13T15:03:22.977Z,47.20
2018-05-13T15:05:51.349Z,48.97
2018-05-13T15:08:19.672Z,47.80
2018-05-13T15:10:48.755Z,49.63
2018-05-13T15:13:17.957Z,47.47
2018-05-13T15:15:47.099Z,39.10
2018-05-13T15:18:15.517Z,39.00
2018-05-13T15:20:43.946Z,41.83
2018-05-13T15:23:12.323Z,42.43
2018-05-13T15:25:40.651Z,40.40
2018-05-13T15:28:08.974Z,43.20
2018-05-13T15:30:37.405Z,45.00
2018-05-13T15:33:06.525Z,46.30
2018-05-13T15:35:35.715Z,42.23
2018-05-13T15:38:04.028Z,45.43
2018-05-13T15:40:32.448Z,47.43
2018-05-13T15:43:01.063Z,48.90
2018-05-13T15:45:29.219Z,53.20
2018-05-13T15:47:57.591Z,60.00
2018-05-13T15:50:25.979Z,58.60
2018-05-13T15:52:55.138Z,67.57
2018-05-13T15:55:24.547Z,65.00
2018-05-13T15:57:52.943Z,66.10
2018-05-13T16:00:21.283Z,72.47
2018-05-13T16:02:50.437Z,75.13
2018-05-13T16:05:18.827Z,76.50
2018-05-13T16:07:47.229Z,92.07
2018-05-13T16:10:16.333Z,86.50
2018-05-13T16:12:44.733Z,98.77
2018-05-13T16:15:13.135Z,95.97
2018-05-13T16:17:41.486Z,85.07
2018-05-13T16:20:09.921Z,97.43
2018-05-13T16:22:38.288Z,99.23
2018-05-13T16:25:06.638Z,109.57
2018-05-13T16:27:34.971Z,106.00
2018-05-13T16:30:04.193Z,102.83
2018-05-13T16:32:32.570Z,95.93
2018-05-13T16:35:00.935Z,90.77
2018-05-13T16:37:29.311Z,93.13
2018-05-13T16:39:58.437Z,102.90
2018-05-13T16:42:26.808Z,101.50
2018-05-13T16:44:56.072Z,101.33
2018-05-13T16:47:24.416Z,98.60
2018-05-13T16:49:52.733Z,89.47
2018-05-13T16:52:21.849Z,106.63
2018-05-13T16:54:50.227Z,96.60
2018-05-13T16:57:19.342Z,114.50
2018-05-13T16:59:47.763Z,82.77
2018-05-13T17:02:16.131Z,79.50
2018-05-13T17:04:44.478Z,89.00
2018-05-13T17:07:12.801Z,100.43
2018-05-13T17:09:41.275Z,82.87
2018-05-13T17:12:09.604Z,63.63
2018-05-13T17:14:38.723Z,77.27
2018-05-13T17:17:07.123Z,53.50
2018-05-13T17:19:35.423Z,46.90
2018-05-13T17:22:03.765Z,44.07
2018-05-13T17:24:32.175Z,51.70
2018-05-13T17:27:00.670Z,46.13
2018-05-13T17:29:29.043Z,38.53
2018-05-13T17:31:58.143Z,36.10
2018-05-13T17:34:26.563Z,33.43
2018-05-13T17:36:54.950Z,38.97
2018-05-13T17:39:24.217Z,31.10
2018-05-13T17:41:53.222Z,34.23
2018-05-13T17:44:22.309Z,41.67
2018-05-13T17:46:50.677Z,44.37
2018-05-13T17:49:19.046Z,54.83
2018-05-13T17:51:47.451Z,68.80
2018-05-13T17:54:16.527Z,61.07
2018-05-13T17:56:44.853Z,67.87
2018-05-13T17:59:13.167Z,64.13
2018-05-13T18:01:41.533Z,58.20
2018-05-13T18:04:09.964Z,52.93
2018-05-13T18:06:39.041Z,54.67
2018-05-13T18:09:07.394Z,54.10
2018-05-13T18:11:35.740Z,54.97
2018-05-13T18:14:04.838Z,49.77
2018-05-13T18:16:33.246Z,39.60
2018-05-13T18:19:02.350Z,52.43
2018-05-13T18:21:30.803Z,71.80
2018-05-13T18:23:59.888Z,64.17
2018-05-13T18:26:28.213Z,56.23
2018-05-13T18:28:56.607Z,54.07
2018-05-13T18:31:24.933Z,50.03
2018-05-13T18:33:53.263Z,46.87
2018-05-13T18:36:22.149Z,43.43
2018-05-13T18:38:51.826Z,47.00
2018-05-13T18:41:21.012Z,42.93
2018-05-13T18:43:49.933Z,31.97
2018-05-13T18:46:18.796Z,38.30
2018-05-13T18:48:47.638Z,38.83
2018-05-13T18:51:16.536Z,30.07
2018-05-13T18:53:46.480Z,33.80
2018-05-13T18:56:16.370Z,27.77
2018-05-13T18:58:44.734Z,24.43
2018-05-13T19:01:13.074Z,26.00
2018-05-13T19:03:41.381Z,30.17
2018-05-13T19:06:09.813Z,31.17
2018-05-13T19:08:38.132Z,36.87
2018-05-13T19:11:06.509Z,36.20
2018-05-13T19:13:34.854Z,33.13
2018-05-13T19:16:03.199Z,31.07
2018-05-13T19:18:31.602Z,34.07
2018-05-13T19:21:00.739Z,35.10
2018-05-13T19:23:30.031Z,34.23
2018-05-13T19:25:59.147Z,24.63
2018-05-13T19:28:28.238Z,32.57
2018-05-13T19:30:56.583Z,26.53
2018-05-13T19:33:24.926Z,35.30
2018-05-13T19:35:54.072Z,39.23
2018-05-13T19:38:22.471Z,37.60
2018-05-13T19:40:51.558Z,39.37
2018-05-13T19:43:20.053Z,44.60
2018-05-13T19:45:49.082Z,55.87
2018-05-13T19:48:17.469Z,57.50
2018-05-13T19:50:46.568Z,55.87
2018-05-13T19:53:14.897Z,59.30
2018-05-13T19:55:43.201Z,58.13
2018-05-13T19:58:11.535Z,55.40
2018-05-13T20:00:39.878Z,73.83
2018-05-13T20:03:09.089Z,66.37
2018-05-13T20:05:37.478Z,80.80
2018-05-13T20:08:06.702Z,80.50
2018-05-13T20:10:35.020Z,75.27
2018-05-13T20:13:03.345Z,68.90
2018-05-13T20:15:31.699Z,82.23
2018-05-13T20:18:00.838Z,88.30
2018-05-13T20:20:29.693Z,94.40
2018-05-13T20:23:09.883Z,100.83
2018-05-13T20:25:38.198Z,97.20
2018-05-13T20:28:06.543Z,128.90
2018-05-13T20:30:34.932Z,135.13
2018-05-13T20:33:03.271Z,190.93
2018-05-13T20:35:31.581Z,123.50
2018-05-13T20:37:59.903Z,116.37
2018-05-13T20:40:29.050Z,136.60
2018-05-13T20:42:57.388Z,119.10
2018-05-13T20:45:25.733Z,117.93
2018-05-13T20:47:54.055Z,128.47
2018-05-13T20:50:23.154Z,129.93
2018-05-13T20:52:51.532Z,150.03
2018-05-13T20:55:19.855Z,206.40
2018-05-13T20:57:48.180Z,155.00
2018-05-13T21:00:17.302Z,162.00
2018-05-13T21:02:45.612Z,140.60
2018-05-13T21:05:14.052Z,143.90
2018-05-13T21:07:42.398Z,156.60
2018-05-13T21:10:10.717Z,142.20
2018-05-13T21:12:39.049Z,139.10
2018-05-13T21:15:07.599Z,156.90
2018-05-13T21:17:36.005Z,165.13
2018-05-13T21:20:04.335Z,168.97
2018-05-13T21:22:32.702Z,189.43
2018-05-13T21:25:01.786Z,181.37
2018-05-13T21:27:30.877Z,171.00
2018-05-13T21:30:00.019Z,265.17
2018-05-13T21:32:28.331Z,226.27
2018-05-13T21:34:56.673Z,236.37
2018-05-13T21:37:25.019Z,273.80
2018-05-13T21:39:54.114Z,376.27
2018-05-13T21:42:23.280Z,337.47
2018-05-13T21:44:51.601Z,323.90
2018-05-13T21:47:19.910Z,348.97
2018-05-13T21:49:48.332Z,326.50
2018-05-13T21:52:16.662Z,339.53
2018-05-13T21:54:45.061Z,436.60
2018-05-13T21:57:13.411Z,290.83
2018-05-13T21:59:41.735Z,275.97
2018-05-13T22:02:10.079Z,302.13
2018-05-13T22:04:38.389Z,543.83
2018-05-13T22:07:06.796Z,464.03
2018-05-13T22:09:35.876Z,362.03
2018-05-13T22:12:04.199Z,439.27
2018-05-13T22:14:32.523Z,346.97
2018-05-13T22:17:01.641Z,450.20
2018-05-13T22:19:30.070Z,328.13
2018-05-13T22:21:58.392Z,400.67
2018-05-13T22:24:27.553Z,374.97
2018-05-13T22:26:55.891Z,270.40
2018-05-13T22:29:24.377Z,324.47
2018-05-13T22:31:52.970Z,272.33
2018-05-13T22:34:22.050Z,246.20
2018-05-13T22:36:51.134Z,378.27
2018-05-13T22:39:20.230Z,343.80
2018-05-13T22:41:49.323Z,434.73
2018-05-13T22:44:18.574Z,375.20
2018-05-13T22:46:46.908Z,215.83
2018-05-13T22:49:15.997Z,252.30
2018-05-13T22:51:45.239Z,226.17
2018-05-13T22:54:14.318Z,172.87
2018-05-13T22:56:42.638Z,159.13
2018-05-13T22:59:10.984Z,200.90
2018-05-13T23:01:39.367Z,178.83
2018-05-13T23:04:08.480Z,152.10
2018-05-13T23:06:36.796Z,141.20
2018-05-13T23:09:05.129Z,149.43
2018-05-13T23:11:33.459Z,175.90
2018-05-13T23:14:01.839Z,146.30
2018-05-13T23:16:30.163Z,141.57
2018-05-13T23:18:58.496Z,134.37
2018-05-13T23:21:26.833Z,132.13
2018-05-13T23:23:55.169Z,146.97
2018-05-13T23:26:24.316Z,140.67
2018-05-13T23:28:52.642Z,134.80
2018-05-13T23:31:21.714Z,137.53
2018-05-13T23:33:50.075Z,161.53
2018-05-13T23:36:18.508Z,148.80
2018-05-13T23:38:46.906Z,141.27
2018-05-13T23:41:15.244Z,157.97
2018-05-13T23:43:44.313Z,170.80
2018-05-13T23:46:12.648Z,164.93
2018-05-13T23:48:40.957Z,158.53
2018-05-13T23:51:09.342Z,155.07
2018-05-13T23:53:37.692Z,157.30
2018-05-13T23:56:06.007Z,152.47
2018-05-13T23:58:34.389Z,142.33
